SBI2167 UUDD-URMM
Flight info
| Callsign | SBI2167 |
|---|---|
| Flight time | 1h 50m |
| Altitude | 37000 |
| Route | LINRU4Q LINRU T614 OSPER T828 NIBIM M54 LARIN LARIN5B |
| Aircraft | A320/M-SDFGIJ1RWY/LB1 |
Departure
| Time | 2026-04-23 10:47 |
|---|---|
| Airport | Domodedovo International Airport (UUDD) |
Arrival
| Time | 2026-04-23 12:38 |
|---|---|
| Airport | Mineralnye Vody Airport (URMM) |
| Time | Latitude | Longitude | Altitude | Speed | Heading |
|---|---|---|---|---|---|
| 2026-04-23 10:36 | 55.41173 | 37.89593 | 582 ft | 0 kts | 56° |
| 2026-04-23 10:37 | 55.41178 | 37.89604 | 583 ft | 3 kts | 56° |
| 2026-04-23 10:38 | 55.41186 | 37.89652 | 581 ft | 6 kts | 96° |
| 2026-04-23 10:38 | 55.41145 | 37.89715 | 577 ft | 8 kts | 146° |
| 2026-04-23 10:38 | 55.41106 | 37.89762 | 575 ft | 6 kts | 146° |
| 2026-04-23 10:38 | 55.41068 | 37.89807 | 572 ft | 9 kts | 146° |
| 2026-04-23 10:39 | 55.41006 | 37.89882 | 569 ft | 10 kts | 145° |
| 2026-04-23 10:39 | 55.40959 | 37.89937 | 567 ft | 8 kts | 153° |
| 2026-04-23 10:39 | 55.40919 | 37.89906 | 567 ft | 9 kts | 235° |
| 2026-04-23 10:39 | 55.40872 | 37.89787 | 573 ft | 13 kts | 236° |
| 2026-04-23 10:40 | 55.40836 | 37.89692 | 569 ft | 6 kts | 236° |
| 2026-04-23 10:40 | 55.40799 | 37.89615 | 569 ft | 11 kts | 215° |
| 2026-04-23 10:40 | 55.40735 | 37.89525 | 570 ft | 11 kts | 235° |
| 2026-04-23 10:40 | 55.40701 | 37.89438 | 568 ft | 9 kts | 236° |
| 2026-04-23 10:41 | 55.40657 | 37.89355 | 571 ft | 8 kts | 200° |
| 2026-04-23 10:41 | 55.40595 | 37.89398 | 567 ft | 12 kts | 146° |
| 2026-04-23 10:41 | 55.40519 | 37.89490 | 571 ft | 14 kts | 146° |
| 2026-04-23 10:41 | 55.40438 | 37.89587 | 563 ft | 14 kts | 146° |
| 2026-04-23 10:42 | 55.40353 | 37.89688 | 561 ft | 15 kts | 146° |
| 2026-04-23 10:42 | 55.40270 | 37.89788 | 559 ft | 14 kts | 146° |
| 2026-04-23 10:42 | 55.40195 | 37.89879 | 561 ft | 12 kts | 146° |
| 2026-04-23 10:42 | 55.40130 | 37.89957 | 560 ft | 10 kts | 146° |
| 2026-04-23 10:43 | 55.40068 | 37.90032 | 554 ft | 13 kts | 146° |
| 2026-04-23 10:43 | 55.40003 | 37.90109 | 554 ft | 10 kts | 146° |
| 2026-04-23 10:43 | 55.39950 | 37.90172 | 552 ft | 10 kts | 146° |
| 2026-04-23 10:43 | 55.39882 | 37.90255 | 550 ft | 14 kts | 146° |
| 2026-04-23 10:44 | 55.39807 | 37.90345 | 548 ft | 12 kts | 146° |
| 2026-04-23 10:44 | 55.39750 | 37.90413 | 547 ft | 8 kts | 146° |
| 2026-04-23 10:44 | 55.39696 | 37.90479 | 546 ft | 10 kts | 146° |
| 2026-04-23 10:44 | 55.39649 | 37.90534 | 545 ft | 7 kts | 149° |
| 2026-04-23 10:45 | 55.39605 | 37.90536 | 544 ft | 5 kts | 200° |
| 2026-04-23 10:45 | 55.39592 | 37.90507 | 544 ft | 4 kts | 239° |
| 2026-04-23 10:45 | 55.39567 | 37.90440 | 547 ft | 8 kts | 237° |
| 2026-04-23 10:45 | 55.39540 | 37.90365 | 543 ft | 6 kts | 237° |
| 2026-04-23 10:46 | 55.39541 | 37.90304 | 542 ft | 6 kts | 307° |
| 2026-04-23 10:46 | 55.39563 | 37.90276 | 543 ft | 1 kts | 325° |
| 2026-04-23 10:46 | 55.39669 | 37.90148 | 545 ft | 53 kts | 326° |
| 2026-04-23 10:47 | 55.40156 | 37.89563 | 567 ft | 114 kts | 326° |
| 2026-04-23 10:47 | 55.40958 | 37.88602 | 619 ft | 160 kts | 326° |
| 2026-04-23 10:47 | 55.41857 | 37.87466 | 1326 ft | 158 kts | 327° |
| 2026-04-23 10:47 | 55.42711 | 37.86148 | 1836 ft | 176 kts | 317° |
| 2026-04-23 10:48 | 55.43578 | 37.84475 | 2126 ft | 199 kts | 314° |
| 2026-04-23 10:48 | 55.44505 | 37.82597 | 2801 ft | 204 kts | 314° |
| 2026-04-23 10:48 | 55.45438 | 37.80688 | 3619 ft | 207 kts | 314° |
| 2026-04-23 10:48 | 55.46162 | 37.78480 | 4444 ft | 216 kts | 283° |
| 2026-04-23 10:49 | 55.45977 | 37.75758 | 5001 ft | 242 kts | 248° |
| 2026-04-23 10:49 | 55.45109 | 37.73079 | 5634 ft | 258 kts | 238° |
| 2026-04-23 10:49 | 55.44068 | 37.70468 | 6509 ft | 263 kts | 235° |
| 2026-04-23 10:49 | 55.42757 | 37.68200 | 7321 ft | 269 kts | 207° |
| 2026-04-23 10:50 | 55.40941 | 37.67471 | 8004 ft | 278 kts | 174° |
| 2026-04-23 10:50 | 55.39080 | 37.68491 | 8565 ft | 285 kts | 149° |
| 2026-04-23 10:50 | 55.37398 | 37.70369 | 9412 ft | 287 kts | 141° |
| 2026-04-23 10:50 | 55.35807 | 37.72521 | 10207 ft | 289 kts | 139° |
| 2026-04-23 10:51 | 55.34228 | 37.74730 | 10991 ft | 291 kts | 141° |
| 2026-04-23 10:51 | 55.32619 | 37.76920 | 11749 ft | 294 kts | 142° |
| 2026-04-23 10:51 | 55.30972 | 37.79075 | 12515 ft | 296 kts | 143° |
| 2026-04-23 10:51 | 55.29292 | 37.81198 | 13267 ft | 299 kts | 145° |
| 2026-04-23 10:52 | 55.27567 | 37.83141 | 13945 ft | 300 kts | 154° |
| 2026-04-23 10:52 | 55.25610 | 37.84416 | 14598 ft | 301 kts | 167° |
| 2026-04-23 10:52 | 55.23577 | 37.85298 | 15309 ft | 301 kts | 167° |
| 2026-04-23 10:52 | 55.21535 | 37.86186 | 15961 ft | 304 kts | 167° |
| 2026-04-23 10:53 | 55.19469 | 37.87092 | 16559 ft | 308 kts | 168° |
| 2026-04-23 10:53 | 55.17390 | 37.88011 | 17255 ft | 309 kts | 168° |
| 2026-04-23 10:53 | 55.15299 | 37.88940 | 17884 ft | 311 kts | 168° |
| 2026-04-23 10:53 | 55.13198 | 37.89877 | 18482 ft | 312 kts | 168° |
| 2026-04-23 10:54 | 55.11078 | 37.90701 | 19089 ft | 311 kts | 175° |
| 2026-04-23 10:54 | 55.08927 | 37.90807 | 19705 ft | 309 kts | 187° |
| 2026-04-23 10:54 | 55.06789 | 37.90348 | 20347 ft | 309 kts | 189° |
| 2026-04-23 10:54 | 55.04654 | 37.89869 | 20981 ft | 310 kts | 189° |
| 2026-04-23 10:55 | 55.02515 | 37.89393 | 21605 ft | 310 kts | 189° |
| 2026-04-23 10:55 | 55.00354 | 37.89229 | 22214 ft | 313 kts | 179° |
| 2026-04-23 10:55 | 54.98165 | 37.89879 | 22487 ft | 328 kts | 167° |
| 2026-04-23 10:55 | 54.95939 | 37.91094 | 22693 ft | 340 kts | 167° |
| 2026-04-23 10:56 | 54.93666 | 37.92349 | 23085 ft | 345 kts | 166° |
| 2026-04-23 10:56 | 54.91364 | 37.93618 | 23492 ft | 349 kts | 166° |
| 2026-04-23 10:56 | 54.89035 | 37.94897 | 23876 ft | 353 kts | 166° |
| 2026-04-23 10:56 | 54.86677 | 37.96188 | 24280 ft | 357 kts | 166° |
| 2026-04-23 10:57 | 54.84291 | 37.97491 | 24656 ft | 361 kts | 166° |
| 2026-04-23 10:57 | 54.81867 | 37.98802 | 24842 ft | 371 kts | 167° |
| 2026-04-23 10:57 | 54.79396 | 38.00107 | 24965 ft | 380 kts | 167° |
| 2026-04-23 10:57 | 54.77675 | 38.01007 | 25054 ft | 386 kts | 167° |
| 2026-04-23 10:58 | 54.74214 | 38.02811 | 25227 ft | 397 kts | 167° |
| 2026-04-23 10:58 | 54.71539 | 38.04204 | 25401 ft | 404 kts | 167° |
| 2026-04-23 10:58 | 54.68836 | 38.05620 | 25681 ft | 408 kts | 166° |
| 2026-04-23 10:58 | 54.66111 | 38.07055 | 25991 ft | 411 kts | 166° |
| 2026-04-23 10:59 | 54.64262 | 38.08038 | 26197 ft | 412 kts | 166° |
| 2026-04-23 10:59 | 54.61546 | 38.09492 | 26509 ft | 415 kts | 166° |
| 2026-04-23 10:59 | 54.58772 | 38.10979 | 26839 ft | 418 kts | 166° |
| 2026-04-23 10:59 | 54.55978 | 38.12473 | 27158 ft | 421 kts | 166° |
| 2026-04-23 11:00 | 54.53166 | 38.13973 | 27420 ft | 424 kts | 166° |
| 2026-04-23 11:00 | 54.50342 | 38.15475 | 27717 ft | 425 kts | 166° |
| 2026-04-23 11:00 | 54.46592 | 38.17471 | 28096 ft | 427 kts | 166° |
| 2026-04-23 11:00 | 54.44673 | 38.18495 | 28271 ft | 429 kts | 166° |
| 2026-04-23 11:01 | 54.41813 | 38.20018 | 28519 ft | 430 kts | 166° |
| 2026-04-23 11:01 | 54.38983 | 38.21522 | 28744 ft | 432 kts | 166° |
| 2026-04-23 11:01 | 54.36098 | 38.23049 | 28982 ft | 434 kts | 166° |
| 2026-04-23 11:01 | 54.33252 | 38.24846 | 29312 ft | 437 kts | 159° |
| 2026-04-23 11:02 | 54.30473 | 38.26979 | 29578 ft | 437 kts | 159° |
| 2026-04-23 11:02 | 54.27695 | 38.29111 | 29804 ft | 438 kts | 159° |
| 2026-04-23 11:02 | 54.24911 | 38.31242 | 30017 ft | 439 kts | 159° |
| 2026-04-23 11:02 | 54.22116 | 38.33379 | 30218 ft | 440 kts | 159° |
| 2026-04-23 11:03 | 54.19323 | 38.35509 | 30523 ft | 439 kts | 159° |
| 2026-04-23 11:03 | 54.16527 | 38.37633 | 30761 ft | 439 kts | 159° |
| 2026-04-23 11:03 | 54.13728 | 38.39755 | 30974 ft | 441 kts | 159° |
| 2026-04-23 11:03 | 54.10953 | 38.41859 | 31172 ft | 443 kts | 159° |
| 2026-04-23 11:04 | 54.08125 | 38.44007 | 31371 ft | 445 kts | 159° |
| 2026-04-23 11:04 | 54.05288 | 38.46167 | 31576 ft | 446 kts | 159° |
| 2026-04-23 11:04 | 54.02447 | 38.48322 | 31798 ft | 448 kts | 159° |
| 2026-04-23 11:04 | 53.99598 | 38.50472 | 32011 ft | 449 kts | 159° |
| 2026-04-23 11:05 | 53.96732 | 38.52628 | 32221 ft | 450 kts | 159° |
| 2026-04-23 11:05 | 53.93868 | 38.54783 | 32437 ft | 451 kts | 159° |
| 2026-04-23 11:05 | 53.90995 | 38.56938 | 32694 ft | 452 kts | 159° |
| 2026-04-23 11:05 | 53.88120 | 38.59087 | 32927 ft | 453 kts | 159° |
| 2026-04-23 11:06 | 53.82339 | 38.63412 | 33360 ft | 455 kts | 159° |
| 2026-04-23 11:06 | 53.79442 | 38.65576 | 33541 ft | 456 kts | 159° |
| 2026-04-23 11:06 | 53.76537 | 38.67741 | 33742 ft | 457 kts | 159° |
| 2026-04-23 11:07 | 53.73665 | 38.69877 | 33945 ft | 457 kts | 159° |
| 2026-04-23 11:07 | 53.70758 | 38.72037 | 34162 ft | 457 kts | 159° |
| 2026-04-23 11:07 | 53.67843 | 38.74202 | 34365 ft | 458 kts | 159° |
| 2026-04-23 11:07 | 53.64922 | 38.76367 | 34536 ft | 459 kts | 159° |
| 2026-04-23 11:08 | 53.61997 | 38.78531 | 34702 ft | 460 kts | 159° |
| 2026-04-23 11:08 | 53.59063 | 38.80695 | 34862 ft | 460 kts | 159° |
| 2026-04-23 11:08 | 53.56128 | 38.82860 | 35025 ft | 461 kts | 158° |
| 2026-04-23 11:08 | 53.53187 | 38.85030 | 35209 ft | 461 kts | 158° |
| 2026-04-23 11:09 | 53.50248 | 38.87191 | 35370 ft | 462 kts | 159° |
| 2026-04-23 11:09 | 53.47300 | 38.89354 | 35513 ft | 462 kts | 159° |
| 2026-04-23 11:09 | 53.44354 | 38.91512 | 35655 ft | 463 kts | 158° |
| 2026-04-23 11:09 | 53.41399 | 38.93654 | 35811 ft | 463 kts | 159° |
| 2026-04-23 11:10 | 53.38431 | 38.95751 | 35977 ft | 462 kts | 160° |
| 2026-04-23 11:10 | 53.35460 | 38.97811 | 36156 ft | 462 kts | 160° |
| 2026-04-23 11:10 | 53.32490 | 38.99857 | 36289 ft | 462 kts | 160° |
| 2026-04-23 11:11 | 53.26531 | 39.03976 | 36331 ft | 464 kts | 159° |
| 2026-04-23 11:11 | 53.20585 | 39.08107 | 36331 ft | 466 kts | 159° |
| 2026-04-23 11:12 | 53.14601 | 39.12257 | 36335 ft | 466 kts | 160° |
| 2026-04-23 11:12 | 53.08620 | 39.16384 | 36333 ft | 464 kts | 160° |
| 2026-04-23 11:13 | 53.02652 | 39.20504 | 36341 ft | 464 kts | 159° |
| 2026-04-23 11:13 | 52.96685 | 39.24601 | 36346 ft | 464 kts | 160° |
| 2026-04-23 11:14 | 52.90710 | 39.28683 | 36352 ft | 464 kts | 160° |
| 2026-04-23 11:14 | 52.84768 | 39.32726 | 36347 ft | 464 kts | 160° |
| 2026-04-23 11:15 | 52.78799 | 39.36790 | 36350 ft | 464 kts | 160° |
| 2026-04-23 11:15 | 52.72836 | 39.40841 | 36375 ft | 463 kts | 160° |
| 2026-04-23 11:16 | 52.66868 | 39.44882 | 36379 ft | 463 kts | 160° |
| 2026-04-23 11:16 | 52.60900 | 39.48903 | 36377 ft | 463 kts | 160° |
| 2026-04-23 11:17 | 52.54935 | 39.52900 | 36370 ft | 463 kts | 160° |
| 2026-04-23 11:17 | 52.48981 | 39.56901 | 36383 ft | 462 kts | 161° |
| 2026-04-23 11:18 | 52.43043 | 39.60948 | 36387 ft | 462 kts | 158° |
| 2026-04-23 11:18 | 52.37252 | 39.65558 | 36388 ft | 463 kts | 155° |
| 2026-04-23 11:19 | 52.31576 | 39.70439 | 36390 ft | 464 kts | 155° |
| 2026-04-23 11:19 | 52.25849 | 39.75267 | 36403 ft | 463 kts | 155° |
| 2026-04-23 11:20 | 52.20091 | 39.79957 | 36414 ft | 462 kts | 156° |
| 2026-04-23 11:20 | 52.14331 | 39.84617 | 36415 ft | 462 kts | 156° |
| 2026-04-23 11:21 | 52.08579 | 39.89277 | 36425 ft | 462 kts | 156° |
| 2026-04-23 11:21 | 52.02831 | 39.93927 | 36421 ft | 461 kts | 156° |
| 2026-04-23 11:22 | 51.97086 | 39.98558 | 36438 ft | 461 kts | 156° |
| 2026-04-23 11:22 | 51.91349 | 40.03213 | 36450 ft | 461 kts | 157° |
| 2026-04-23 11:23 | 51.85617 | 40.07857 | 36441 ft | 461 kts | 156° |
| 2026-04-23 11:23 | 51.79924 | 40.12460 | 36441 ft | 460 kts | 156° |
| 2026-04-23 11:24 | 51.74189 | 40.17057 | 36455 ft | 460 kts | 156° |
| 2026-04-23 11:24 | 51.68634 | 40.22230 | 36469 ft | 462 kts | 150° |
| 2026-04-23 11:25 | 51.63221 | 40.27831 | 36467 ft | 462 kts | 150° |
| 2026-04-23 11:25 | 51.57802 | 40.33424 | 36465 ft | 462 kts | 150° |
| 2026-04-23 11:26 | 51.52391 | 40.38986 | 36486 ft | 461 kts | 150° |
| 2026-04-23 11:26 | 51.46979 | 40.44520 | 36486 ft | 461 kts | 150° |
| 2026-04-23 11:27 | 51.41565 | 40.50041 | 36499 ft | 461 kts | 150° |
| 2026-04-23 11:27 | 51.36157 | 40.55553 | 36499 ft | 461 kts | 150° |
| 2026-04-23 11:28 | 51.30467 | 40.60053 | 36491 ft | 453 kts | 167° |
| 2026-04-23 11:28 | 51.24356 | 40.61830 | 36496 ft | 449 kts | 174° |
| 2026-04-23 11:29 | 51.18140 | 40.63323 | 36509 ft | 449 kts | 174° |
| 2026-04-23 11:29 | 51.11998 | 40.64819 | 36511 ft | 449 kts | 174° |
| 2026-04-23 11:30 | 51.05810 | 40.66313 | 36518 ft | 449 kts | 174° |
| 2026-04-23 11:30 | 50.99622 | 40.67790 | 36512 ft | 450 kts | 174° |
| 2026-04-23 11:31 | 50.93425 | 40.69267 | 36521 ft | 451 kts | 174° |
| 2026-04-23 11:31 | 50.87218 | 40.70748 | 36524 ft | 451 kts | 174° |
| 2026-04-23 11:32 | 50.81009 | 40.72210 | 36527 ft | 451 kts | 174° |
| 2026-04-23 11:32 | 50.74795 | 40.73680 | 36525 ft | 451 kts | 174° |
| 2026-04-23 11:33 | 50.68584 | 40.75142 | 36536 ft | 451 kts | 174° |
| 2026-04-23 11:33 | 50.62383 | 40.76784 | 36542 ft | 454 kts | 167° |
| 2026-04-23 11:34 | 50.56604 | 40.80902 | 36553 ft | 461 kts | 151° |
| 2026-04-23 11:34 | 50.51164 | 40.86245 | 36572 ft | 461 kts | 151° |
| 2026-04-23 11:35 | 50.45716 | 40.91580 | 36550 ft | 461 kts | 151° |
| 2026-04-23 11:35 | 50.40270 | 40.96910 | 36570 ft | 461 kts | 151° |
| 2026-04-23 11:36 | 50.34857 | 41.02180 | 36576 ft | 461 kts | 151° |
| 2026-04-23 11:36 | 50.29401 | 41.07465 | 36590 ft | 461 kts | 151° |
| 2026-04-23 11:37 | 50.23953 | 41.12749 | 36578 ft | 461 kts | 151° |
| 2026-04-23 11:37 | 50.18504 | 41.18021 | 36581 ft | 461 kts | 151° |
| 2026-04-23 11:38 | 50.13050 | 41.23282 | 36603 ft | 461 kts | 151° |
| 2026-04-23 11:38 | 50.07593 | 41.28523 | 36610 ft | 461 kts | 152° |
| 2026-04-23 11:39 | 50.02129 | 41.33746 | 36602 ft | 461 kts | 152° |
| 2026-04-23 11:39 | 49.96459 | 41.38223 | 36614 ft | 454 kts | 165° |
| 2026-04-23 11:40 | 49.90323 | 41.40211 | 36617 ft | 450 kts | 173° |
| 2026-04-23 11:40 | 49.84146 | 41.41815 | 36623 ft | 450 kts | 173° |
| 2026-04-23 11:41 | 49.77978 | 41.43425 | 36619 ft | 451 kts | 173° |
| 2026-04-23 11:41 | 49.71805 | 41.45049 | 36623 ft | 451 kts | 173° |
| 2026-04-23 11:42 | 49.65622 | 41.46683 | 36629 ft | 451 kts | 173° |
| 2026-04-23 11:42 | 49.59453 | 41.48294 | 36643 ft | 451 kts | 174° |
| 2026-04-23 11:43 | 49.53283 | 41.49892 | 36645 ft | 451 kts | 174° |
| 2026-04-23 11:43 | 49.47085 | 41.51493 | 36634 ft | 451 kts | 174° |
| 2026-04-23 11:44 | 49.40883 | 41.53087 | 36651 ft | 451 kts | 174° |
| 2026-04-23 11:44 | 49.34693 | 41.54673 | 36657 ft | 451 kts | 174° |
| 2026-04-23 11:45 | 49.28534 | 41.56267 | 36678 ft | 451 kts | 174° |
| 2026-04-23 11:45 | 49.22343 | 41.57866 | 36681 ft | 451 kts | 174° |
| 2026-04-23 11:46 | 49.16143 | 41.59440 | 36670 ft | 451 kts | 174° |
| 2026-04-23 11:46 | 49.09953 | 41.61016 | 36673 ft | 451 kts | 174° |
| 2026-04-23 11:47 | 49.03760 | 41.62589 | 36687 ft | 451 kts | 174° |
| 2026-04-23 11:47 | 48.97569 | 41.64165 | 36691 ft | 451 kts | 174° |
| 2026-04-23 11:48 | 48.91376 | 41.65729 | 36702 ft | 451 kts | 174° |
| 2026-04-23 11:48 | 48.85223 | 41.67285 | 36696 ft | 451 kts | 174° |
| 2026-04-23 11:49 | 48.79031 | 41.68852 | 36701 ft | 450 kts | 174° |
| 2026-04-23 11:49 | 48.72844 | 41.70400 | 36710 ft | 450 kts | 174° |
| 2026-04-23 11:50 | 48.66666 | 41.71948 | 36721 ft | 450 kts | 174° |
| 2026-04-23 11:50 | 48.61528 | 41.73237 | 36721 ft | 450 kts | 174° |
| 2026-04-23 11:51 | 48.55352 | 41.74786 | 36728 ft | 449 kts | 174° |
| 2026-04-23 11:51 | 48.49216 | 41.76308 | 36732 ft | 449 kts | 175° |
| 2026-04-23 11:52 | 48.43044 | 41.77833 | 36735 ft | 448 kts | 174° |
| 2026-04-23 11:52 | 48.36881 | 41.79359 | 36738 ft | 448 kts | 174° |
| 2026-04-23 11:53 | 48.30776 | 41.81033 | 36741 ft | 450 kts | 172° |
| 2026-04-23 11:53 | 48.24671 | 41.83251 | 36743 ft | 451 kts | 169° |
| 2026-04-23 11:54 | 48.18592 | 41.85598 | 36745 ft | 451 kts | 170° |
| 2026-04-23 11:54 | 48.12504 | 41.87842 | 36733 ft | 450 kts | 171° |
| 2026-04-23 11:55 | 48.06430 | 41.89985 | 36728 ft | 450 kts | 171° |
| 2026-04-23 11:55 | 48.00325 | 41.92133 | 36737 ft | 450 kts | 171° |
| 2026-04-23 11:56 | 47.94227 | 41.94297 | 36750 ft | 450 kts | 171° |
| 2026-04-23 11:56 | 47.88137 | 41.96460 | 36754 ft | 449 kts | 171° |
| 2026-04-23 11:57 | 47.82089 | 41.98597 | 36760 ft | 449 kts | 171° |
| 2026-04-23 11:57 | 47.76000 | 42.00740 | 36745 ft | 449 kts | 171° |
| 2026-04-23 11:58 | 47.69921 | 42.02879 | 36761 ft | 449 kts | 171° |
| 2026-04-23 11:58 | 47.63833 | 42.05018 | 36773 ft | 449 kts | 171° |
| 2026-04-23 11:59 | 47.57787 | 42.07124 | 36772 ft | 449 kts | 171° |
| 2026-04-23 11:59 | 47.51711 | 42.09234 | 36763 ft | 448 kts | 172° |
| 2026-04-23 12:00 | 47.45635 | 42.11357 | 36773 ft | 448 kts | 172° |
| 2026-04-23 12:00 | 47.39567 | 42.13472 | 36790 ft | 448 kts | 172° |
| 2026-04-23 12:01 | 47.33500 | 42.15574 | 36790 ft | 448 kts | 172° |
| 2026-04-23 12:01 | 47.27439 | 42.17673 | 36770 ft | 447 kts | 172° |
| 2026-04-23 12:02 | 47.21383 | 42.19752 | 36787 ft | 447 kts | 172° |
| 2026-04-23 12:02 | 47.15327 | 42.21828 | 36786 ft | 447 kts | 172° |
| 2026-04-23 12:03 | 47.09279 | 42.23913 | 36792 ft | 446 kts | 172° |
| 2026-04-23 12:03 | 47.03230 | 42.25992 | 36794 ft | 446 kts | 172° |
| 2026-04-23 12:04 | 46.97168 | 42.27819 | 36787 ft | 443 kts | 175° |
| 2026-04-23 12:04 | 46.91083 | 42.29203 | 36798 ft | 442 kts | 177° |
| 2026-04-23 12:05 | 46.85004 | 42.30530 | 36801 ft | 442 kts | 176° |
| 2026-04-23 12:05 | 46.78933 | 42.31967 | 36798 ft | 442 kts | 176° |
| 2026-04-23 12:06 | 46.72899 | 42.33444 | 36779 ft | 442 kts | 176° |
| 2026-04-23 12:06 | 46.63805 | 42.35974 | 36799 ft | 445 kts | 173° |
| 2026-04-23 12:07 | 46.57772 | 42.38028 | 36805 ft | 445 kts | 173° |
| 2026-04-23 12:07 | 46.51745 | 42.40066 | 36805 ft | 444 kts | 173° |
| 2026-04-23 12:08 | 46.45709 | 42.42019 | 36790 ft | 443 kts | 174° |
| 2026-04-23 12:08 | 46.39689 | 42.43938 | 36817 ft | 443 kts | 174° |
| 2026-04-23 12:09 | 46.33670 | 42.45859 | 36819 ft | 443 kts | 174° |
| 2026-04-23 12:09 | 46.27658 | 42.47774 | 36821 ft | 442 kts | 174° |
| 2026-04-23 12:10 | 46.21650 | 42.49692 | 36802 ft | 442 kts | 174° |
| 2026-04-23 12:10 | 46.15680 | 42.51589 | 36806 ft | 441 kts | 174° |
| 2026-04-23 12:11 | 46.09678 | 42.53491 | 36813 ft | 441 kts | 174° |
| 2026-04-23 12:11 | 46.03713 | 42.55330 | 36822 ft | 441 kts | 175° |
| 2026-04-23 12:12 | 45.97703 | 42.57101 | 36802 ft | 440 kts | 175° |
| 2026-04-23 12:12 | 45.91704 | 42.58855 | 36816 ft | 440 kts | 175° |
| 2026-04-23 12:13 | 45.85713 | 42.60624 | 36822 ft | 439 kts | 175° |
| 2026-04-23 12:13 | 45.79704 | 42.62409 | 36828 ft | 439 kts | 175° |
| 2026-04-23 12:14 | 45.73719 | 42.64175 | 36836 ft | 439 kts | 175° |
| 2026-04-23 12:14 | 45.67773 | 42.65918 | 36712 ft | 439 kts | 175° |
| 2026-04-23 12:15 | 45.64779 | 42.66801 | 36453 ft | 438 kts | 175° |
| 2026-04-23 12:15 | 45.61793 | 42.67682 | 36200 ft | 437 kts | 175° |
| 2026-04-23 12:15 | 45.58821 | 42.68556 | 35949 ft | 437 kts | 176° |
| 2026-04-23 12:15 | 45.55842 | 42.69424 | 35702 ft | 436 kts | 176° |
| 2026-04-23 12:16 | 45.52872 | 42.70284 | 35458 ft | 435 kts | 176° |
| 2026-04-23 12:16 | 45.49902 | 42.71144 | 35197 ft | 435 kts | 176° |
| 2026-04-23 12:16 | 45.46943 | 42.72003 | 34952 ft | 434 kts | 176° |
| 2026-04-23 12:16 | 45.43986 | 42.72887 | 34632 ft | 434 kts | 176° |
| 2026-04-23 12:17 | 45.41058 | 42.73846 | 33725 ft | 439 kts | 175° |
| 2026-04-23 12:17 | 45.38090 | 42.74889 | 32695 ft | 440 kts | 175° |
| 2026-04-23 12:17 | 45.35125 | 42.75969 | 31699 ft | 439 kts | 175° |
| 2026-04-23 12:17 | 45.32177 | 42.77049 | 30828 ft | 434 kts | 176° |
| 2026-04-23 12:18 | 45.29276 | 42.78101 | 29953 ft | 428 kts | 176° |
| 2026-04-23 12:18 | 45.26394 | 42.79126 | 28936 ft | 423 kts | 177° |
| 2026-04-23 12:18 | 45.23566 | 42.80112 | 28259 ft | 414 kts | 177° |
| 2026-04-23 12:18 | 45.20782 | 42.81071 | 27613 ft | 407 kts | 177° |
| 2026-04-23 12:19 | 45.18043 | 42.82007 | 26969 ft | 401 kts | 177° |
| 2026-04-23 12:19 | 45.15343 | 42.82928 | 26337 ft | 396 kts | 177° |
| 2026-04-23 12:19 | 45.12673 | 42.83838 | 25723 ft | 392 kts | 177° |
| 2026-04-23 12:19 | 45.10039 | 42.84738 | 25112 ft | 387 kts | 177° |
| 2026-04-23 12:20 | 45.07433 | 42.85630 | 24511 ft | 384 kts | 177° |
| 2026-04-23 12:20 | 45.04880 | 42.86503 | 23914 ft | 380 kts | 177° |
| 2026-04-23 12:20 | 45.02312 | 42.87380 | 23304 ft | 377 kts | 177° |
| 2026-04-23 12:20 | 44.99770 | 42.88254 | 22678 ft | 373 kts | 176° |
| 2026-04-23 12:21 | 44.97261 | 42.89122 | 22153 ft | 368 kts | 176° |
| 2026-04-23 12:21 | 44.94785 | 42.89980 | 21617 ft | 364 kts | 176° |
| 2026-04-23 12:21 | 44.92325 | 42.90826 | 21132 ft | 361 kts | 176° |
| 2026-04-23 12:21 | 44.89928 | 42.91650 | 20653 ft | 357 kts | 176° |
| 2026-04-23 12:22 | 44.87519 | 42.92474 | 20182 ft | 353 kts | 176° |
| 2026-04-23 12:22 | 44.85141 | 42.93289 | 19720 ft | 350 kts | 176° |
| 2026-04-23 12:22 | 44.82789 | 42.94096 | 19263 ft | 346 kts | 176° |
| 2026-04-23 12:22 | 44.80451 | 42.94894 | 18809 ft | 343 kts | 176° |
| 2026-04-23 12:23 | 44.78135 | 42.95680 | 18330 ft | 340 kts | 176° |
| 2026-04-23 12:23 | 44.75840 | 42.96457 | 17835 ft | 338 kts | 176° |
| 2026-04-23 12:23 | 44.73564 | 42.97231 | 17361 ft | 335 kts | 175° |
| 2026-04-23 12:23 | 44.71295 | 42.98005 | 16874 ft | 333 kts | 175° |
| 2026-04-23 12:24 | 44.69073 | 42.98766 | 16404 ft | 332 kts | 175° |
| 2026-04-23 12:24 | 44.66828 | 42.99532 | 15911 ft | 332 kts | 174° |
| 2026-04-23 12:24 | 44.64584 | 43.00295 | 15420 ft | 332 kts | 174° |
| 2026-04-23 12:24 | 44.62335 | 43.01061 | 14917 ft | 332 kts | 173° |
| 2026-04-23 12:25 | 44.60091 | 43.01903 | 14417 ft | 336 kts | 167° |
| 2026-04-23 12:25 | 44.57927 | 43.03261 | 13894 ft | 342 kts | 160° |
| 2026-04-23 12:25 | 44.55800 | 43.04748 | 13326 ft | 342 kts | 160° |
| 2026-04-23 12:25 | 44.53701 | 43.06214 | 12789 ft | 339 kts | 159° |
| 2026-04-23 12:26 | 44.51594 | 43.07681 | 12264 ft | 336 kts | 159° |
| 2026-04-23 12:26 | 44.49502 | 43.09135 | 11725 ft | 334 kts | 158° |
| 2026-04-23 12:26 | 44.48184 | 43.10048 | 11389 ft | 332 kts | 158° |
| 2026-04-23 12:26 | 44.46126 | 43.11514 | 10852 ft | 332 kts | 154° |
| 2026-04-23 12:27 | 44.44297 | 43.13444 | 10524 ft | 331 kts | 140° |
| 2026-04-23 12:27 | 44.42826 | 43.15875 | 10400 ft | 323 kts | 128° |
| 2026-04-23 12:27 | 44.41657 | 43.18520 | 10274 ft | 313 kts | 126° |
| 2026-04-23 12:27 | 44.40531 | 43.21075 | 10079 ft | 305 kts | 126° |
| 2026-04-23 12:28 | 44.39425 | 43.23574 | 9951 ft | 297 kts | 126° |
| 2026-04-23 12:28 | 44.38347 | 43.26004 | 9896 ft | 295 kts | 124° |
| 2026-04-23 12:28 | 44.37281 | 43.28405 | 9718 ft | 286 kts | 124° |
| 2026-04-23 12:28 | 44.36238 | 43.30749 | 9370 ft | 283 kts | 124° |
| 2026-04-23 12:29 | 44.35200 | 43.33076 | 8964 ft | 282 kts | 124° |
| 2026-04-23 12:29 | 44.34165 | 43.35399 | 8531 ft | 281 kts | 123° |
| 2026-04-23 12:29 | 44.33132 | 43.37720 | 8107 ft | 281 kts | 123° |
| 2026-04-23 12:29 | 44.32100 | 43.40037 | 7680 ft | 280 kts | 123° |
| 2026-04-23 12:30 | 44.31072 | 43.42349 | 7249 ft | 280 kts | 123° |
| 2026-04-23 12:30 | 44.29863 | 43.44447 | 6832 ft | 277 kts | 144° |
| 2026-04-23 12:30 | 44.28162 | 43.45509 | 6408 ft | 271 kts | 174° |
| 2026-04-23 12:30 | 44.26293 | 43.45267 | 6030 ft | 267 kts | 203° |
| 2026-04-23 12:31 | 44.24702 | 43.44027 | 5639 ft | 265 kts | 214° |
| 2026-04-23 12:31 | 44.23142 | 43.42639 | 5242 ft | 264 kts | 214° |
| 2026-04-23 12:31 | 44.21602 | 43.41267 | 4851 ft | 261 kts | 213° |
| 2026-04-23 12:31 | 44.20077 | 43.39913 | 4449 ft | 258 kts | 213° |
| 2026-04-23 12:32 | 44.18597 | 43.38602 | 4322 ft | 244 kts | 212° |
| 2026-04-23 12:32 | 44.17202 | 43.37366 | 4263 ft | 229 kts | 212° |
| 2026-04-23 12:32 | 44.15883 | 43.36197 | 4206 ft | 222 kts | 212° |
| 2026-04-23 12:32 | 44.14586 | 43.35053 | 4108 ft | 221 kts | 212° |
| 2026-04-23 12:33 | 44.13312 | 43.33909 | 4003 ft | 220 kts | 217° |
| 2026-04-23 12:33 | 44.12489 | 43.32253 | 3991 ft | 206 kts | 260° |
| 2026-04-23 12:33 | 44.12720 | 43.30365 | 4012 ft | 200 kts | 298° |
| 2026-04-23 12:33 | 44.13407 | 43.28718 | 4028 ft | 194 kts | 302° |
| 2026-04-23 12:34 | 44.14104 | 43.27173 | 3914 ft | 186 kts | 301° |
| 2026-04-23 12:34 | 44.14798 | 43.25647 | 3665 ft | 186 kts | 302° |
| 2026-04-23 12:34 | 44.15492 | 43.24125 | 3420 ft | 186 kts | 302° |
| 2026-04-23 12:34 | 44.16179 | 43.22617 | 3173 ft | 182 kts | 302° |
| 2026-04-23 12:35 | 44.16843 | 43.21158 | 2931 ft | 178 kts | 302° |
| 2026-04-23 12:35 | 44.17491 | 43.19735 | 2690 ft | 168 kts | 302° |
| 2026-04-23 12:35 | 44.18091 | 43.18416 | 2478 ft | 153 kts | 302° |
| 2026-04-23 12:35 | 44.18645 | 43.17198 | 2268 ft | 145 kts | 302° |
| 2026-04-23 12:36 | 44.18999 | 43.16417 | 2134 ft | 143 kts | 302° |
| 2026-04-23 12:36 | 44.19527 | 43.15257 | 1927 ft | 140 kts | 302° |
| 2026-04-23 12:36 | 44.20215 | 43.13751 | 1680 ft | 139 kts | 303° |
| 2026-04-23 12:36 | 44.20727 | 43.12618 | 1480 ft | 138 kts | 303° |
| 2026-04-23 12:37 | 44.21241 | 43.11486 | 1288 ft | 140 kts | 303° |
| 2026-04-23 12:37 | 44.21595 | 43.10702 | 1164 ft | 142 kts | 303° |
| 2026-04-23 12:37 | 44.22101 | 43.09574 | 1059 ft | 127 kts | 303° |
| 2026-04-23 12:37 | 44.22474 | 43.08753 | 1056 ft | 72 kts | 302° |
| 2026-04-23 12:38 | 44.22605 | 43.08459 | 1054 ft | 9 kts | 292° |
| 2026-04-23 12:38 | 44.22607 | 43.08409 | 1054 ft | 6 kts | 291° |
| 2026-04-23 12:38 | 44.22616 | 43.08447 | 1055 ft | 8 kts | 112° |
| 2026-04-23 12:38 | 44.22574 | 43.08535 | 1053 ft | 14 kts | 124° |
| 2026-04-23 12:39 | 44.22513 | 43.08657 | 1056 ft | 16 kts | 124° |
| 2026-04-23 12:39 | 44.22433 | 43.08775 | 1054 ft | 18 kts | 141° |
| 2026-04-23 12:39 | 44.22315 | 43.08876 | 1052 ft | 20 kts | 152° |
| 2026-04-23 12:39 | 44.22237 | 43.08932 | 1053 ft | 11 kts | 152° |
| 2026-04-23 12:40 | 44.22173 | 43.08980 | 1053 ft | 12 kts | 152° |
| 2026-04-23 12:40 | 44.22094 | 43.09038 | 1052 ft | 14 kts | 152° |
| 2026-04-23 12:40 | 44.22002 | 43.09105 | 1051 ft | 11 kts | 153° |
| 2026-04-23 12:40 | 44.21940 | 43.09126 | 1051 ft | 9 kts | 196° |
| 2026-04-23 12:41 | 44.21892 | 43.09088 | 1051 ft | 6 kts | 211° |
| 2026-04-23 12:41 | 44.21855 | 43.09060 | 1051 ft | 5 kts | 204° |
| 2026-04-23 12:41 | 44.21824 | 43.09044 | 1051 ft | 4 kts | 201° |
| 2026-04-23 12:41 | 44.21792 | 43.09018 | 1051 ft | 5 kts | 212° |
| 2026-04-23 12:42 | 44.21765 | 43.08994 | 1051 ft | 4 kts | 212° |
| 2026-04-23 12:42 | 44.21753 | 43.08984 | 1051 ft | 1 kts | 212° |